sensor_id;sensor_type;location;lat;lon;timestamp;P1;durP1;ratioP1;P2;durP2;ratioP2
33810;SDS011;20119;48.334;16.206;2022-12-18T00:01:20;17.75;;;11.13;;
33810;SDS011;20119;48.334;16.206;2022-12-18T00:03:48;17.65;;;11.27;;
33810;SDS011;20119;48.334;16.206;2022-12-18T00:06:15;17.58;;;11.27;;
33810;SDS011;20119;48.334;16.206;2022-12-18T00:08:42;18.75;;;11.65;;
33810;SDS011;20119;48.334;16.206;2022-12-18T00:11:12;20.13;;;11.80;;
33810;SDS011;20119;48.334;16.206;2022-12-18T00:18:51;19.27;;;11.15;;
33810;SDS011;20119;48.334;16.206;2022-12-18T00:21:19;17.92;;;11.07;;
33810;SDS011;20119;48.334;16.206;2022-12-18T00:23:47;16.80;;;11.05;;
33810;SDS011;20119;48.334;16.206;2022-12-18T00:26:18;20.15;;;11.48;;
33810;SDS011;20119;48.334;16.206;2022-12-18T00:28:46;18.48;;;11.52;;
33810;SDS011;20119;48.334;16.206;2022-12-18T00:31:15;32.72;;;18.92;;
33810;SDS011;20119;48.334;16.206;2022-12-18T00:33:43;22.02;;;13.25;;
33810;SDS011;20119;48.334;16.206;2022-12-18T00:36:11;16.13;;;10.25;;
33810;SDS011;20119;48.334;16.206;2022-12-18T00:38:40;15.00;;;10.05;;
33810;SDS011;20119;48.334;16.206;2022-12-18T00:41:07;17.02;;;10.88;;
33810;SDS011;20119;48.334;16.206;2022-12-18T00:43:37;23.77;;;14.00;;
33810;SDS011;20119;48.334;16.206;2022-12-18T00:48:35;20.25;;;12.82;;
33810;SDS011;20119;48.334;16.206;2022-12-18T00:51:02;21.83;;;13.90;;
33810;SDS011;20119;48.334;16.206;2022-12-18T00:53:28;20.70;;;12.68;;
33810;SDS011;20119;48.334;16.206;2022-12-18T00:55:55;20.67;;;12.68;;
33810;SDS011;20119;48.334;16.206;2022-12-18T00:58:23;19.33;;;11.75;;
33810;SDS011;20119;48.334;16.206;2022-12-18T01:00:52;17.70;;;11.30;;
33810;SDS011;20119;48.334;16.206;2022-12-18T01:03:19;18.85;;;12.05;;
33810;SDS011;20119;48.334;16.206;2022-12-18T01:05:45;18.38;;;12.18;;
33810;SDS011;20119;48.334;16.206;2022-12-18T01:08:12;19.63;;;12.07;;
33810;SDS011;20119;48.334;16.206;2022-12-18T01:10:39;20.15;;;13.30;;
33810;SDS011;20119;48.334;16.206;2022-12-18T01:23:29;24.00;;;13.77;;
33810;SDS011;20119;48.334;16.206;2022-12-18T01:25:56;22.15;;;14.07;;
33810;SDS011;20119;48.334;16.206;2022-12-18T01:28:23;21.23;;;12.55;;
33810;SDS011;20119;48.334;16.206;2022-12-18T01:30:50;23.92;;;13.15;;
33810;SDS011;20119;48.334;16.206;2022-12-18T01:43:44;23.33;;;15.13;;
33810;SDS011;20119;48.334;16.206;2022-12-18T01:54:00;21.42;;;13.55;;
33810;SDS011;20119;48.334;16.206;2022-12-18T01:56:27;24.98;;;14.65;;
33810;SDS011;20119;48.334;16.206;2022-12-18T01:58:56;23.52;;;14.32;;
33810;SDS011;20119;48.334;16.206;2022-12-18T02:01:27;24.48;;;14.52;;
33810;SDS011;20119;48.334;16.206;2022-12-18T02:03:56;22.95;;;14.68;;
33810;SDS011;20119;48.334;16.206;2022-12-18T02:09:22;27.30;;;14.90;;
33810;SDS011;20119;48.334;16.206;2022-12-18T02:14:38;25.08;;;14.10;;
33810;SDS011;20119;48.334;16.206;2022-12-18T02:27:31;25.58;;;15.43;;
33810;SDS011;20119;48.334;16.206;2022-12-18T02:29:59;27.63;;;15.93;;
33810;SDS011;20119;48.334;16.206;2022-12-18T02:32:30;22.40;;;14.53;;
33810;SDS011;20119;48.334;16.206;2022-12-18T02:34:58;27.40;;;15.40;;
33810;SDS011;20119;48.334;16.206;2022-12-18T02:37:27;26.15;;;15.68;;
33810;SDS011;20119;48.334;16.206;2022-12-18T02:39:55;24.90;;;14.75;;
33810;SDS011;20119;48.334;16.206;2022-12-18T02:42:24;26.95;;;15.57;;
33810;SDS011;20119;48.334;16.206;2022-12-18T02:47:31;26.70;;;16.30;;
33810;SDS011;20119;48.334;16.206;2022-12-18T02:50:11;30.67;;;17.00;;
33810;SDS011;20119;48.334;16.206;2022-12-18T02:52:45;33.50;;;17.67;;
33810;SDS011;20119;48.334;16.206;2022-12-18T02:55:25;28.23;;;16.55;;
33810;SDS011;20119;48.334;16.206;2022-12-18T02:58:03;30.48;;;16.90;;
33810;SDS011;20119;48.334;16.206;2022-12-18T03:05:53;26.75;;;16.92;;
33810;SDS011;20119;48.334;16.206;2022-12-18T03:08:27;30.58;;;18.55;;
33810;SDS011;20119;48.334;16.206;2022-12-18T03:10:57;31.48;;;17.80;;
33810;SDS011;20119;48.334;16.206;2022-12-18T03:13:31;31.15;;;18.17;;
33810;SDS011;20119;48.334;16.206;2022-12-18T03:18:35;31.38;;;17.92;;
33810;SDS011;20119;48.334;16.206;2022-12-18T03:21:06;32.97;;;19.73;;
33810;SDS011;20119;48.334;16.206;2022-12-18T03:23:36;31.17;;;18.40;;
33810;SDS011;20119;48.334;16.206;2022-12-18T03:28:42;34.25;;;19.27;;
33810;SDS011;20119;48.334;16.206;2022-12-18T03:31:12;36.30;;;19.98;;
33810;SDS011;20119;48.334;16.206;2022-12-18T03:33:43;34.05;;;20.48;;
33810;SDS011;20119;48.334;16.206;2022-12-18T03:36:14;33.08;;;18.52;;
33810;SDS011;20119;48.334;16.206;2022-12-18T03:38:41;34.22;;;19.67;;
33810;SDS011;20119;48.334;16.206;2022-12-18T03:41:10;35.92;;;20.35;;
33810;SDS011;20119;48.334;16.206;2022-12-18T03:43:45;35.03;;;19.13;;
33810;SDS011;20119;48.334;16.206;2022-12-18T03:46:28;32.65;;;19.73;;
33810;SDS011;20119;48.334;16.206;2022-12-18T03:49:06;34.80;;;20.25;;
33810;SDS011;20119;48.334;16.206;2022-12-18T04:02:00;36.33;;;19.88;;
33810;SDS011;20119;48.334;16.206;2022-12-18T04:07:05;39.22;;;20.27;;
33810;SDS011;20119;48.334;16.206;2022-12-18T04:09:33;36.28;;;19.92;;
33810;SDS011;20119;48.334;16.206;2022-12-18T04:12:01;34.72;;;19.95;;
33810;SDS011;20119;48.334;16.206;2022-12-18T04:14:28;37.42;;;20.20;;
33810;SDS011;20119;48.334;16.206;2022-12-18T04:17:02;35.50;;;19.17;;
33810;SDS011;20119;48.334;16.206;2022-12-18T04:19:29;37.17;;;19.58;;
33810;SDS011;20119;48.334;16.206;2022-12-18T04:21:56;38.10;;;19.70;;
33810;SDS011;20119;48.334;16.206;2022-12-18T04:26:58;35.10;;;20.35;;
33810;SDS011;20119;48.334;16.206;2022-12-18T04:35:14;38.83;;;20.92;;
33810;SDS011;20119;48.334;16.206;2022-12-18T04:37:41;36.80;;;20.83;;
33810;SDS011;20119;48.334;16.206;2022-12-18T04:40:08;38.15;;;20.13;;
33810;SDS011;20119;48.334;16.206;2022-12-18T04:42:36;39.17;;;20.33;;
33810;SDS011;20119;48.334;16.206;2022-12-18T04:45:05;38.13;;;20.05;;
33810;SDS011;20119;48.334;16.206;2022-12-18T04:47:37;36.28;;;19.55;;
33810;SDS011;20119;48.334;16.206;2022-12-18T04:50:08;37.78;;;20.83;;
33810;SDS011;20119;48.334;16.206;2022-12-18T04:52:36;39.05;;;20.35;;
33810;SDS011;20119;48.334;16.206;2022-12-18T05:10:42;40.42;;;21.08;;
33810;SDS011;20119;48.334;16.206;2022-12-18T05:15:50;38.45;;;22.00;;
33810;SDS011;20119;48.334;16.206;2022-12-18T05:18:17;44.90;;;24.73;;
33810;SDS011;20119;48.334;16.206;2022-12-18T05:20:44;46.08;;;24.30;;
33810;SDS011;20119;48.334;16.206;2022-12-18T05:23:11;47.33;;;25.30;;
33810;SDS011;20119;48.334;16.206;2022-12-18T05:28:15;49.95;;;25.05;;
33810;SDS011;20119;48.334;16.206;2022-12-18T05:43:54;45.42;;;24.35;;
33810;SDS011;20119;48.334;16.206;2022-12-18T05:46:21;46.65;;;24.70;;
33810;SDS011;20119;48.334;16.206;2022-12-18T05:51:27;47.22;;;26.20;;
33810;SDS011;20119;48.334;16.206;2022-12-18T05:56:30;45.53;;;24.95;;
33810;SDS011;20119;48.334;16.206;2022-12-18T05:58:58;48.50;;;26.55;;
33810;SDS011;20119;48.334;16.206;2022-12-18T06:06:36;53.55;;;26.50;;
33810;SDS011;20119;48.334;16.206;2022-12-18T06:47:55;71.75;;;37.65;;
33810;SDS011;20119;48.334;16.206;2022-12-18T06:50:22;75.82;;;39.35;;
33810;SDS011;20119;48.334;16.206;2022-12-18T07:03:40;66.18;;;34.30;;
33810;SDS011;20119;48.334;16.206;2022-12-18T07:06:12;65.68;;;34.00;;
33810;SDS011;20119;48.334;16.206;2022-12-18T07:11:16;65.55;;;33.65;;
33810;SDS011;20119;48.334;16.206;2022-12-18T07:13:44;117.05;;;53.95;;
33810;SDS011;20119;48.334;16.206;2022-12-18T07:16:13;91.20;;;43.58;;
33810;SDS011;20119;48.334;16.206;2022-12-18T07:18:43;134.27;;;56.50;;
33810;SDS011;20119;48.334;16.206;2022-12-18T07:21:12;122.57;;;50.53;;
33810;SDS011;20119;48.334;16.206;2022-12-18T07:23:40;111.22;;;49.03;;
33810;SDS011;20119;48.334;16.206;2022-12-18T07:26:08;89.57;;;44.90;;
33810;SDS011;20119;48.334;16.206;2022-12-18T07:28:37;87.47;;;42.88;;
33810;SDS011;20119;48.334;16.206;2022-12-18T07:33:36;90.93;;;43.85;;
33810;SDS011;20119;48.334;16.206;2022-12-18T07:41:12;82.22;;;41.58;;
33810;SDS011;20119;48.334;16.206;2022-12-18T07:43:40;88.00;;;42.33;;
33810;SDS011;20119;48.334;16.206;2022-12-18T07:46:08;108.25;;;52.20;;
33810;SDS011;20119;48.334;16.206;2022-12-18T07:51:11;104.78;;;50.47;;
33810;SDS011;20119;48.334;16.206;2022-12-18T07:53:39;126.53;;;60.28;;
33810;SDS011;20119;48.334;16.206;2022-12-18T08:01:20;114.65;;;48.92;;
33810;SDS011;20119;48.334;16.206;2022-12-18T08:11:43;97.50;;;45.25;;
33810;SDS011;20119;48.334;16.206;2022-12-18T08:14:10;36.60;;;23.15;;
33810;SDS011;20119;48.334;16.206;2022-12-18T08:16:38;38.55;;;23.15;;
33810;SDS011;20119;48.334;16.206;2022-12-18T08:26:51;40.47;;;24.00;;
33810;SDS011;20119;48.334;16.206;2022-12-18T08:29:18;42.75;;;25.75;;
33810;SDS011;20119;48.334;16.206;2022-12-18T08:31:46;39.85;;;22.98;;
33810;SDS011;20119;48.334;16.206;2022-12-18T08:34:13;39.33;;;23.30;;
33810;SDS011;20119;48.334;16.206;2022-12-18T08:39:15;41.10;;;23.95;;
33810;SDS011;20119;48.334;16.206;2022-12-18T08:41:42;43.42;;;25.88;;
33810;SDS011;20119;48.334;16.206;2022-12-18T08:44:29;46.17;;;30.38;;
33810;SDS011;20119;48.334;16.206;2022-12-18T08:47:05;48.45;;;28.98;;
33810;SDS011;20119;48.334;16.206;2022-12-18T08:49:33;50.75;;;29.33;;
33810;SDS011;20119;48.334;16.206;2022-12-18T08:59:42;48.75;;;28.33;;
33810;SDS011;20119;48.334;16.206;2022-12-18T09:04:47;47.72;;;25.90;;
33810;SDS011;20119;48.334;16.206;2022-12-18T09:07:14;50.08;;;28.17;;
33810;SDS011;20119;48.334;16.206;2022-12-18T09:09:41;46.08;;;25.98;;
33810;SDS011;20119;48.334;16.206;2022-12-18T09:14:43;43.70;;;25.70;;
33810;SDS011;20119;48.334;16.206;2022-12-18T09:17:10;61.42;;;32.17;;
33810;SDS011;20119;48.334;16.206;2022-12-18T09:19:37;57.95;;;32.15;;
33810;SDS011;20119;48.334;16.206;2022-12-18T09:22:05;59.42;;;33.10;;
33810;SDS011;20119;48.334;16.206;2022-12-18T09:24:32;55.20;;;30.90;;
33810;SDS011;20119;48.334;16.206;2022-12-18T09:27:00;57.00;;;31.20;;
33810;SDS011;20119;48.334;16.206;2022-12-18T09:29:26;57.80;;;32.78;;
33810;SDS011;20119;48.334;16.206;2022-12-18T09:34:31;65.68;;;34.78;;
33810;SDS011;20119;48.334;16.206;2022-12-18T09:42:14;60.33;;;31.55;;
33810;SDS011;20119;48.334;16.206;2022-12-18T09:44:48;55.83;;;30.05;;
33810;SDS011;20119;48.334;16.206;2022-12-18T09:47:17;60.42;;;33.10;;
33810;SDS011;20119;48.334;16.206;2022-12-18T09:49:46;62.83;;;31.70;;
33810;SDS011;20119;48.334;16.206;2022-12-18T09:52:17;54.47;;;28.63;;
33810;SDS011;20119;48.334;16.206;2022-12-18T09:54:49;47.35;;;24.67;;
33810;SDS011;20119;48.334;16.206;2022-12-18T09:59:51;48.90;;;25.92;;
33810;SDS011;20119;48.334;16.206;2022-12-18T10:05:07;58.65;;;29.80;;
33810;SDS011;20119;48.334;16.206;2022-12-18T10:07:43;46.85;;;24.95;;
33810;SDS011;20119;48.334;16.206;2022-12-18T10:10:22;53.45;;;27.13;;
33810;SDS011;20119;48.334;16.206;2022-12-18T10:12:56;51.90;;;26.65;;
33810;SDS011;20119;48.334;16.206;2022-12-18T10:15:34;55.97;;;28.13;;
33810;SDS011;20119;48.334;16.206;2022-12-18T10:18:10;46.15;;;23.80;;
33810;SDS011;20119;48.334;16.206;2022-12-18T10:23:23;52.50;;;28.02;;
33810;SDS011;20119;48.334;16.206;2022-12-18T10:25:59;50.55;;;26.38;;
33810;SDS011;20119;48.334;16.206;2022-12-18T10:28:29;51.22;;;27.65;;
33810;SDS011;20119;48.334;16.206;2022-12-18T10:30:58;44.28;;;21.48;;
33810;SDS011;20119;48.334;16.206;2022-12-18T10:33:28;47.13;;;24.35;;
33810;SDS011;20119;48.334;16.206;2022-12-18T10:35:56;50.83;;;25.20;;
33810;SDS011;20119;48.334;16.206;2022-12-18T10:38:25;53.15;;;24.15;;
33810;SDS011;20119;48.334;16.206;2022-12-18T10:43:30;45.40;;;23.73;;
33810;SDS011;20119;48.334;16.206;2022-12-18T10:46:14;50.08;;;26.15;;
33810;SDS011;20119;48.334;16.206;2022-12-18T10:48:50;53.95;;;26.33;;
33810;SDS011;20119;48.334;16.206;2022-12-18T10:51:20;50.15;;;25.52;;
33810;SDS011;20119;48.334;16.206;2022-12-18T10:53:54;47.58;;;25.83;;
33810;SDS011;20119;48.334;16.206;2022-12-18T10:56:24;51.05;;;26.77;;
33810;SDS011;20119;48.334;16.206;2022-12-18T10:58:56;53.03;;;27.45;;
33810;SDS011;20119;48.334;16.206;2022-12-18T11:01:26;46.05;;;24.88;;
33810;SDS011;20119;48.334;16.206;2022-12-18T11:06:32;46.20;;;23.63;;
33810;SDS011;20119;48.334;16.206;2022-12-18T11:09:00;49.90;;;26.08;;
33810;SDS011;20119;48.334;16.206;2022-12-18T11:14:05;41.95;;;22.20;;
33810;SDS011;20119;48.334;16.206;2022-12-18T11:27:02;46.22;;;23.08;;
33810;SDS011;20119;48.334;16.206;2022-12-18T11:29:32;45.42;;;22.33;;
33810;SDS011;20119;48.334;16.206;2022-12-18T11:32:22;43.40;;;22.50;;
33810;SDS011;20119;48.334;16.206;2022-12-18T11:34:55;40.38;;;21.17;;
33810;SDS011;20119;48.334;16.206;2022-12-18T11:37:27;46.00;;;25.48;;
33810;SDS011;20119;48.334;16.206;2022-12-18T11:39:56;40.80;;;21.95;;
33810;SDS011;20119;48.334;16.206;2022-12-18T11:42:30;42.50;;;21.83;;
33810;SDS011;20119;48.334;16.206;2022-12-18T11:45:03;45.47;;;21.65;;
33810;SDS011;20119;48.334;16.206;2022-12-18T11:47:51;41.03;;;21.95;;
33810;SDS011;20119;48.334;16.206;2022-12-18T11:50:24;46.25;;;23.70;;
33810;SDS011;20119;48.334;16.206;2022-12-18T11:52:54;45.47;;;22.67;;
33810;SDS011;20119;48.334;16.206;2022-12-18T11:55:24;48.13;;;23.85;;
33810;SDS011;20119;48.334;16.206;2022-12-18T11:57:59;38.83;;;19.80;;
33810;SDS011;20119;48.334;16.206;2022-12-18T12:00:34;42.08;;;21.73;;
33810;SDS011;20119;48.334;16.206;2022-12-18T12:06:08;41.10;;;22.20;;
33810;SDS011;20119;48.334;16.206;2022-12-18T12:08:45;41.38;;;21.27;;
33810;SDS011;20119;48.334;16.206;2022-12-18T12:11:21;53.97;;;25.88;;
33810;SDS011;20119;48.334;16.206;2022-12-18T12:14:02;53.30;;;26.92;;
33810;SDS011;20119;48.334;16.206;2022-12-18T12:16:41;57.92;;;28.63;;
33810;SDS011;20119;48.334;16.206;2022-12-18T12:19:20;46.38;;;24.58;;
33810;SDS011;20119;48.334;16.206;2022-12-18T12:21:58;47.92;;;24.92;;
33810;SDS011;20119;48.334;16.206;2022-12-18T12:24:34;48.85;;;24.25;;
33810;SDS011;20119;48.334;16.206;2022-12-18T12:27:11;50.83;;;24.90;;
33810;SDS011;20119;48.334;16.206;2022-12-18T12:29:49;48.65;;;23.92;;
33810;SDS011;20119;48.334;16.206;2022-12-18T12:32:26;54.45;;;28.10;;
33810;SDS011;20119;48.334;16.206;2022-12-18T12:35:07;49.42;;;25.15;;
33810;SDS011;20119;48.334;16.206;2022-12-18T12:37:43;48.90;;;24.25;;
33810;SDS011;20119;48.334;16.206;2022-12-18T12:40:21;54.90;;;27.25;;
33810;SDS011;20119;48.334;16.206;2022-12-18T12:42:52;56.72;;;26.30;;
33810;SDS011;20119;48.334;16.206;2022-12-18T12:45:42;48.78;;;25.92;;
33810;SDS011;20119;48.334;16.206;2022-12-18T12:50:48;57.90;;;29.15;;
33810;SDS011;20119;48.334;16.206;2022-12-18T13:14:01;56.55;;;27.10;;
33810;SDS011;20119;48.334;16.206;2022-12-18T13:16:28;57.88;;;25.77;;
33810;SDS011;20119;48.334;16.206;2022-12-18T13:18:55;52.00;;;25.52;;
33810;SDS011;20119;48.334;16.206;2022-12-18T13:21:24;43.20;;;22.58;;
33810;SDS011;20119;48.334;16.206;2022-12-18T13:23:54;48.33;;;25.20;;
33810;SDS011;20119;48.334;16.206;2022-12-18T13:26:29;51.70;;;25.70;;
33810;SDS011;20119;48.334;16.206;2022-12-18T13:34:28;48.35;;;24.52;;
33810;SDS011;20119;48.334;16.206;2022-12-18T13:36:56;53.70;;;23.37;;
33810;SDS011;20119;48.334;16.206;2022-12-18T13:42:34;54.15;;;25.60;;
33810;SDS011;20119;48.334;16.206;2022-12-18T13:45:37;48.15;;;23.75;;
33810;SDS011;20119;48.334;16.206;2022-12-18T13:48:13;51.53;;;26.50;;
33810;SDS011;20119;48.334;16.206;2022-12-18T13:50:57;49.67;;;24.98;;
33810;SDS011;20119;48.334;16.206;2022-12-18T13:53:27;52.03;;;27.95;;
33810;SDS011;20119;48.334;16.206;2022-12-18T13:56:00;56.33;;;28.25;;
33810;SDS011;20119;48.334;16.206;2022-12-18T14:01:00;57.72;;;28.25;;
33810;SDS011;20119;48.334;16.206;2022-12-18T14:03:29;54.17;;;27.05;;
33810;SDS011;20119;48.334;16.206;2022-12-18T14:06:01;56.30;;;27.55;;
33810;SDS011;20119;48.334;16.206;2022-12-18T14:08:37;52.03;;;28.45;;
33810;SDS011;20119;48.334;16.206;2022-12-18T14:11:05;54.47;;;27.27;;
33810;SDS011;20119;48.334;16.206;2022-12-18T14:16:11;53.70;;;27.50;;
33810;SDS011;20119;48.334;16.206;2022-12-18T14:18:42;54.25;;;26.90;;
33810;SDS011;20119;48.334;16.206;2022-12-18T14:21:20;55.17;;;28.48;;
33810;SDS011;20119;48.334;16.206;2022-12-18T14:23:49;56.80;;;27.02;;
33810;SDS011;20119;48.334;16.206;2022-12-18T14:31:40;57.40;;;27.55;;
33810;SDS011;20119;48.334;16.206;2022-12-18T14:34:14;59.88;;;30.35;;
33810;SDS011;20119;48.334;16.206;2022-12-18T14:36:44;54.40;;;27.80;;
33810;SDS011;20119;48.334;16.206;2022-12-18T14:39:18;59.53;;;29.20;;
33810;SDS011;20119;48.334;16.206;2022-12-18T14:46:56;60.95;;;31.88;;
33810;SDS011;20119;48.334;16.206;2022-12-18T14:49:24;64.18;;;32.22;;
33810;SDS011;20119;48.334;16.206;2022-12-18T14:51:57;64.68;;;32.50;;
33810;SDS011;20119;48.334;16.206;2022-12-18T14:59:39;61.40;;;31.65;;
33810;SDS011;20119;48.334;16.206;2022-12-18T15:02:09;66.60;;;32.08;;
33810;SDS011;20119;48.334;16.206;2022-12-18T15:04:42;65.82;;;32.50;;
33810;SDS011;20119;48.334;16.206;2022-12-18T15:07:11;65.95;;;32.25;;
33810;SDS011;20119;48.334;16.206;2022-12-18T15:09:40;64.80;;;32.63;;
33810;SDS011;20119;48.334;16.206;2022-12-18T15:12:33;74.13;;;34.78;;
33810;SDS011;20119;48.334;16.206;2022-12-18T15:15:01;67.15;;;31.77;;
33810;SDS011;20119;48.334;16.206;2022-12-18T15:17:28;60.50;;;28.73;;
33810;SDS011;20119;48.334;16.206;2022-12-18T15:25:20;75.28;;;33.92;;
33810;SDS011;20119;48.334;16.206;2022-12-18T15:27:53;68.22;;;31.50;;
33810;SDS011;20119;48.334;16.206;2022-12-18T15:30:21;62.45;;;31.17;;
33810;SDS011;20119;48.334;16.206;2022-12-18T15:32:49;65.28;;;30.90;;
33810;SDS011;20119;48.334;16.206;2022-12-18T15:35:18;66.78;;;31.35;;
33810;SDS011;20119;48.334;16.206;2022-12-18T15:37:47;67.95;;;33.65;;
33810;SDS011;20119;48.334;16.206;2022-12-18T15:40:15;66.82;;;31.42;;
33810;SDS011;20119;48.334;16.206;2022-12-18T15:42:44;69.00;;;33.28;;
33810;SDS011;20119;48.334;16.206;2022-12-18T15:45:29;76.55;;;37.70;;
33810;SDS011;20119;48.334;16.206;2022-12-18T15:47:56;69.45;;;33.13;;
33810;SDS011;20119;48.334;16.206;2022-12-18T15:50:23;63.70;;;28.80;;
33810;SDS011;20119;48.334;16.206;2022-12-18T15:52:50;69.05;;;31.45;;
33810;SDS011;20119;48.334;16.206;2022-12-18T15:55:19;81.38;;;36.67;;
33810;SDS011;20119;48.334;16.206;2022-12-18T15:58:07;68.75;;;31.60;;
33810;SDS011;20119;48.334;16.206;2022-12-18T16:03:11;69.32;;;31.20;;
33810;SDS011;20119;48.334;16.206;2022-12-18T16:05:38;63.47;;;31.63;;
33810;SDS011;20119;48.334;16.206;2022-12-18T16:08:04;65.38;;;29.17;;
33810;SDS011;20119;48.334;16.206;2022-12-18T16:10:31;75.60;;;34.50;;
33810;SDS011;20119;48.334;16.206;2022-12-18T16:12:58;66.30;;;31.55;;
33810;SDS011;20119;48.334;16.206;2022-12-18T16:15:27;90.65;;;38.70;;
33810;SDS011;20119;48.334;16.206;2022-12-18T16:17:54;116.95;;;43.00;;
33810;SDS011;20119;48.334;16.206;2022-12-18T16:20:21;75.18;;;32.00;;
33810;SDS011;20119;48.334;16.206;2022-12-18T16:22:50;79.38;;;33.25;;
33810;SDS011;20119;48.334;16.206;2022-12-18T16:25:21;105.03;;;40.83;;
33810;SDS011;20119;48.334;16.206;2022-12-18T16:27:50;81.15;;;34.63;;
33810;SDS011;20119;48.334;16.206;2022-12-18T16:30:18;80.85;;;34.92;;
33810;SDS011;20119;48.334;16.206;2022-12-18T16:35:23;102.10;;;42.20;;
33810;SDS011;20119;48.334;16.206;2022-12-18T16:37:51;65.63;;;29.05;;
33810;SDS011;20119;48.334;16.206;2022-12-18T16:40:18;69.20;;;30.45;;
33810;SDS011;20119;48.334;16.206;2022-12-18T16:42:45;71.15;;;34.00;;
33810;SDS011;20119;48.334;16.206;2022-12-18T16:45:13;64.82;;;29.38;;
33810;SDS011;20119;48.334;16.206;2022-12-18T16:47:42;62.22;;;29.27;;
33810;SDS011;20119;48.334;16.206;2022-12-18T16:50:09;59.35;;;29.05;;
33810;SDS011;20119;48.334;16.206;2022-12-18T16:52:40;68.47;;;29.30;;
33810;SDS011;20119;48.334;16.206;2022-12-18T16:55:08;69.20;;;30.67;;
33810;SDS011;20119;48.334;16.206;2022-12-18T16:57:35;60.53;;;28.63;;
33810;SDS011;20119;48.334;16.206;2022-12-18T17:00:02;62.78;;;30.70;;
33810;SDS011;20119;48.334;16.206;2022-12-18T17:02:30;71.75;;;31.33;;
33810;SDS011;20119;48.334;16.206;2022-12-18T17:04:57;64.57;;;30.63;;
33810;SDS011;20119;48.334;16.206;2022-12-18T17:07:24;72.25;;;30.95;;
33810;SDS011;20119;48.334;16.206;2022-12-18T17:09:54;71.97;;;33.13;;
33810;SDS011;20119;48.334;16.206;2022-12-18T17:12:21;75.13;;;38.35;;
33810;SDS011;20119;48.334;16.206;2022-12-18T17:14:48;67.15;;;30.88;;
33810;SDS011;20119;48.334;16.206;2022-12-18T17:17:15;71.65;;;32.50;;
33810;SDS011;20119;48.334;16.206;2022-12-18T17:19:41;63.65;;;30.63;;
33810;SDS011;20119;48.334;16.206;2022-12-18T17:22:08;62.30;;;30.25;;
33810;SDS011;20119;48.334;16.206;2022-12-18T17:24:35;62.67;;;29.35;;
33810;SDS011;20119;48.334;16.206;2022-12-18T17:27:03;68.38;;;32.78;;
33810;SDS011;20119;48.334;16.206;2022-12-18T17:29:31;83.68;;;38.35;;
33810;SDS011;20119;48.334;16.206;2022-12-18T17:31:58;66.55;;;33.00;;
33810;SDS011;20119;48.334;16.206;2022-12-18T17:34:25;90.18;;;42.95;;
33810;SDS011;20119;48.334;16.206;2022-12-18T17:36:52;64.97;;;32.42;;
33810;SDS011;20119;48.334;16.206;2022-12-18T17:39:19;80.57;;;37.58;;
33810;SDS011;20119;48.334;16.206;2022-12-18T17:41:46;89.05;;;42.28;;
33810;SDS011;20119;48.334;16.206;2022-12-18T17:44:17;77.50;;;36.13;;
33810;SDS011;20119;48.334;16.206;2022-12-18T17:46:44;90.72;;;40.20;;
33810;SDS011;20119;48.334;16.206;2022-12-18T17:49:12;84.65;;;39.17;;
33810;SDS011;20119;48.334;16.206;2022-12-18T17:51:39;78.50;;;37.50;;
33810;SDS011;20119;48.334;16.206;2022-12-18T18:01:54;65.28;;;31.75;;
33810;SDS011;20119;48.334;16.206;2022-12-18T18:04:21;59.00;;;31.00;;
33810;SDS011;20119;48.334;16.206;2022-12-18T18:06:48;66.28;;;33.22;;
33810;SDS011;20119;48.334;16.206;2022-12-18T18:09:16;67.72;;;35.08;;
33810;SDS011;20119;48.334;16.206;2022-12-18T18:11:44;77.03;;;39.60;;
33810;SDS011;20119;48.334;16.206;2022-12-18T18:14:29;66.53;;;33.03;;
33810;SDS011;20119;48.334;16.206;2022-12-18T18:16:57;63.45;;;32.58;;
33810;SDS011;20119;48.334;16.206;2022-12-18T18:19:24;68.50;;;35.00;;
33810;SDS011;20119;48.334;16.206;2022-12-18T18:21:51;64.22;;;32.08;;
33810;SDS011;20119;48.334;16.206;2022-12-18T18:24:20;74.93;;;37.08;;
33810;SDS011;20119;48.334;16.206;2022-12-18T18:26:49;62.72;;;32.17;;
33810;SDS011;20119;48.334;16.206;2022-12-18T18:29:17;63.45;;;30.27;;
33810;SDS011;20119;48.334;16.206;2022-12-18T18:31:45;62.13;;;31.25;;
33810;SDS011;20119;48.334;16.206;2022-12-18T18:34:14;59.90;;;29.50;;
33810;SDS011;20119;48.334;16.206;2022-12-18T18:36:42;62.30;;;30.30;;
33810;SDS011;20119;48.334;16.206;2022-12-18T18:39:10;90.32;;;40.75;;
33810;SDS011;20119;48.334;16.206;2022-12-18T18:41:37;72.95;;;34.90;;
33810;SDS011;20119;48.334;16.206;2022-12-18T18:44:04;80.15;;;37.28;;
33810;SDS011;20119;48.334;16.206;2022-12-18T18:46:31;71.65;;;35.67;;
33810;SDS011;20119;48.334;16.206;2022-12-18T18:48:58;73.55;;;35.28;;
33810;SDS011;20119;48.334;16.206;2022-12-18T18:54:02;60.13;;;30.33;;
33810;SDS011;20119;48.334;16.206;2022-12-18T18:56:29;66.55;;;32.05;;
33810;SDS011;20119;48.334;16.206;2022-12-18T18:58:57;82.55;;;38.75;;
33810;SDS011;20119;48.334;16.206;2022-12-18T19:01:25;84.05;;;38.35;;
33810;SDS011;20119;48.334;16.206;2022-12-18T19:06:28;73.00;;;34.95;;
33810;SDS011;20119;48.334;16.206;2022-12-18T19:14:10;63.30;;;32.10;;
33810;SDS011;20119;48.334;16.206;2022-12-18T19:19:14;72.05;;;34.60;;
33810;SDS011;20119;48.334;16.206;2022-12-18T19:21:44;65.75;;;33.88;;
33810;SDS011;20119;48.334;16.206;2022-12-18T19:24:11;64.85;;;32.38;;
33810;SDS011;20119;48.334;16.206;2022-12-18T19:26:38;65.38;;;33.33;;
33810;SDS011;20119;48.334;16.206;2022-12-18T19:29:07;69.35;;;35.60;;
33810;SDS011;20119;48.334;16.206;2022-12-18T19:31:36;61.92;;;32.00;;
33810;SDS011;20119;48.334;16.206;2022-12-18T19:41:49;78.60;;;40.08;;
33810;SDS011;20119;48.334;16.206;2022-12-18T19:46:53;60.78;;;32.90;;
33810;SDS011;20119;48.334;16.206;2022-12-18T19:49:20;57.97;;;29.70;;
33810;SDS011;20119;48.334;16.206;2022-12-18T19:51:48;65.65;;;33.00;;
33810;SDS011;20119;48.334;16.206;2022-12-18T19:54:17;57.42;;;29.63;;
33810;SDS011;20119;48.334;16.206;2022-12-18T19:56:44;57.40;;;28.85;;
33810;SDS011;20119;48.334;16.206;2022-12-18T19:59:12;61.80;;;32.70;;
33810;SDS011;20119;48.334;16.206;2022-12-18T20:01:42;57.95;;;30.83;;
33810;SDS011;20119;48.334;16.206;2022-12-18T20:04:10;61.22;;;31.60;;
33810;SDS011;20119;48.334;16.206;2022-12-18T20:06:44;59.72;;;31.33;;
33810;SDS011;20119;48.334;16.206;2022-12-18T20:09:13;63.90;;;32.78;;
33810;SDS011;20119;48.334;16.206;2022-12-18T20:11:41;58.25;;;30.63;;
33810;SDS011;20119;48.334;16.206;2022-12-18T20:14:10;61.55;;;30.23;;
33810;SDS011;20119;48.334;16.206;2022-12-18T20:16:40;58.00;;;30.13;;
33810;SDS011;20119;48.334;16.206;2022-12-18T20:19:08;53.65;;;28.15;;
33810;SDS011;20119;48.334;16.206;2022-12-18T20:21:38;50.38;;;26.83;;
33810;SDS011;20119;48.334;16.206;2022-12-18T20:24:06;49.42;;;27.67;;
33810;SDS011;20119;48.334;16.206;2022-12-18T20:26:37;54.45;;;27.77;;